Time;durP1;ratioP1;P1;durP2;ratioP2;P2;SDS_P1;SDS_P2;PMS_P1;PMS_P2;Temp;Humidity;BMP_temperature;BMP_pressure;BME280_temperature;BME280_humidity;BME280_pressure;Samples;Min_cycle;Max_cycle;Signal;HPM_P1;HPM_P2
2022/01/07 00:00:21;;;;;;;4.85;2.67;;;6.70;50.10;;;;;;6330761;27;20509;-65
2022/01/07 00:03:22;;;;;;;5.97;3.22;;;6.70;50.40;;;;;;6345675;27;20030;-65
2022/01/07 00:06:23;;;;;;;6.95;4.15;;;6.70;50.20;;;;;;6334790;27;20019;-67
2022/01/07 00:09:24;;;;;;;10.73;3.38;;;6.70;50.20;;;;;;6364610;27;20034;-65
2022/01/07 00:12:26;;;;;;;6.72;3.38;;;6.70;50.30;;;;;;6364186;27;20460;-68
2022/01/07 00:15:27;;;;;;;5.65;3.17;;;6.70;50.40;;;;;;6333023;27;20032;-66
2022/01/07 00:18:28;;;;;;;6.18;3.03;;;6.70;50.50;;;;;;6339710;27;20072;-68
2022/01/07 00:21:30;;;;;;;6.10;2.60;;;6.60;50.40;;;;;;6328608;27;20027;-66
2022/01/07 00:24:31;;;;;;;10.75;3.90;;;6.60;50.50;;;;;;6327977;27;20027;-66
2022/01/07 00:27:32;;;;;;;8.23;3.50;;;6.50;50.60;;;;;;6341186;27;20630;-66
2022/01/07 00:30:33;;;;;;;13.45;3.97;;;6.50;50.70;;;;;;6340877;27;20030;-68
2022/01/07 00:33:34;;;;;;;8.43;3.58;;;6.50;50.80;;;;;;6324005;27;20024;-66
2022/01/07 00:36:35;;;;;;;8.43;4.00;;;6.40;50.90;;;;;;6316838;28;20040;-67
2022/01/07 00:39:36;;;;;;;5.18;2.45;;;6.40;51.00;;;;;;6311524;28;20071;-66
2022/01/07 00:42:37;;;;;;;8.23;3.40;;;6.40;51.10;;;;;;6316090;28;20694;-67
2022/01/07 00:45:39;;;;;;;14.05;4.15;;;6.40;51.20;;;;;;6325747;28;20081;-66
2022/01/07 00:48:40;;;;;;;7.63;4.05;;;6.30;51.30;;;;;;6333696;28;20456;-66
2022/01/07 00:51:40;;;;;;;5.32;3.00;;;6.20;51.40;;;;;;6335511;28;20052;-66
2022/01/07 00:54:42;;;;;;;5.72;3.30;;;6.20;51.60;;;;;;6334402;28;20111;-66
2022/01/07 00:57:43;;;;;;;9.10;3.22;;;6.10;51.70;;;;;;6333937;28;20039;-66
2022/01/07 01:00:44;;;;;;;6.55;3.15;;;6.10;51.70;;;;;;6327881;28;20024;-67
2022/01/07 01:03:45;;;;;;;6.72;2.53;;;6.10;51.80;;;;;;6334712;28;20028;-66
2022/01/07 01:06:46;;;;;;;12.90;3.95;;;6.10;51.80;;;;;;6331983;28;20114;-67
2022/01/07 01:09:47;;;;;;;8.00;3.15;;;6.10;51.80;;;;;;6336877;28;20043;-67
2022/01/07 01:12:49;;;;;;;9.00;3.30;;;6.00;51.80;;;;;;6335336;28;20538;-67
2022/01/07 01:15:50;;;;;;;6.72;3.08;;;6.00;52.00;;;;;;6337456;28;20435;-66
2022/01/07 01:18:51;;;;;;;15.30;4.00;;;6.00;52.10;;;;;;6334260;28;20016;-68
2022/01/07 01:21:53;;;;;;;10.73;3.15;;;6.00;52.10;;;;;;6336004;28;20058;-66
2022/01/07 01:24:54;;;;;;;5.70;3.38;;;6.00;52.20;;;;;;6332145;28;20407;-66
2022/01/07 01:27:56;;;;;;;7.03;3.28;;;6.00;52.30;;;;;;6319951;28;20016;-66
2022/01/07 01:30:57;;;;;;;8.00;2.78;;;5.90;52.30;;;;;;6331318;28;20404;-67
2022/01/07 01:33:58;;;;;;;6.90;3.33;;;5.90;52.40;;;;;;6329899;28;20020;-67
2022/01/07 01:36:59;;;;;;;6.50;3.35;;;5.90;52.50;;;;;;6330478;28;20504;-66
2022/01/07 01:40:00;;;;;;;6.70;3.40;;;5.80;52.50;;;;;;6331482;28;20413;-65
2022/01/07 01:43:02;;;;;;;5.97;3.40;;;5.90;52.50;;;;;;6333761;28;20024;-67
2022/01/07 01:46:03;;;;;;;3.67;2.40;;;5.90;52.50;;;;;;6339450;28;20093;-66
2022/01/07 01:49:05;;;;;;;6.15;3.08;;;5.90;52.50;;;;;;6339390;28;20031;-68
2022/01/07 01:52:07;;;;;;;6.53;3.33;;;5.80;52.40;;;;;;6333495;28;20031;-68
2022/01/07 01:55:09;;;;;;;9.45;3.08;;;5.80;52.50;;;;;;6339437;28;20035;-67
2022/01/07 01:58:11;;;;;;;14.77;3.33;;;5.80;52.50;;;;;;6339880;28;20578;-66
2022/01/07 02:01:12;;;;;;;11.27;3.60;;;5.80;52.60;;;;;;6336659;28;20022;-68
2022/01/07 02:04:13;;;;;;;5.75;2.55;;;5.70;52.60;;;;;;6336165;28;20051;-68
2022/01/07 02:07:14;;;;;;;5.25;2.95;;;5.60;52.70;;;;;;6336681;28;20030;-67
2022/01/07 02:10:16;;;;;;;11.02;3.38;;;5.70;52.80;;;;;;6337394;28;20040;-67
2022/01/07 02:13:18;;;;;;;11.27;3.65;;;5.60;52.80;;;;;;6334783;28;20028;-66
2022/01/07 02:16:19;;;;;;;6.53;3.35;;;5.60;53.00;;;;;;6335040;28;20329;-67
2022/01/07 02:19:20;;;;;;;10.40;2.90;;;5.60;53.10;;;;;;6337056;28;20012;-66
2022/01/07 02:22:23;;;;;;;7.40;3.45;;;5.60;53.20;;;;;;6336273;28;20508;-66
2022/01/07 02:25:25;;;;;;;8.65;3.92;;;5.90;53.50;;;;;;6318024;28;20027;-66
2022/01/07 02:28:27;;;;;;;5.25;3.05;;;5.50;53.50;;;;;;6322254;28;20031;-66
2022/01/07 02:31:28;;;;;;;7.28;3.35;;;5.50;53.60;;;;;;6317247;28;20027;-66
2022/01/07 02:34:29;;;;;;;6.97;2.72;;;5.40;53.60;;;;;;6318208;28;20024;-66
2022/01/07 02:37:30;;;;;;;9.52;3.33;;;5.40;53.70;;;;;;6335513;27;20371;-66
2022/01/07 02:40:31;;;;;;;4.50;2.13;;;5.40;53.70;;;;;;6343807;27;20028;-66
2022/01/07 02:43:32;;;;;;;8.35;2.92;;;5.40;53.70;;;;;;6311375;27;20132;-66
2022/01/07 02:46:33;;;;;;;4.75;2.70;;;5.40;53.60;;;;;;6343569;27;20058;-66
2022/01/07 02:49:35;;;;;;;8.55;4.30;;;5.40;53.60;;;;;;6324394;27;20088;-65
2022/01/07 02:52:36;;;;;;;8.00;3.67;;;5.40;53.50;;;;;;6326539;27;20034;-66
2022/01/07 02:55:39;;;;;;;5.68;2.88;;;5.50;53.50;;;;;;6319888;27;20028;-66
2022/01/07 02:58:40;;;;;;;9.25;2.90;;;5.50;53.50;;;;;;6339251;27;20023;-67
2022/01/07 03:01:41;;;;;;;10.23;3.28;;;5.50;54.10;;;;;;6340430;27;20027;-66
2022/01/07 03:04:42;;;;;;;11.02;3.95;;;5.50;53.60;;;;;;6341984;27;20553;-66
2022/01/07 03:07:47;;;;;;;8.27;4.00;;;5.40;53.70;;;;;;6338287;27;20076;-65
2022/01/07 03:10:48;;;;;;;5.75;2.90;;;5.40;53.80;;;;;;6339993;27;20031;-68
2022/01/07 03:13:49;;;;;;;5.13;3.30;;;5.30;53.80;;;;;;6327214;27;20038;-66
2022/01/07 03:16:51;;;;;;;7.32;3.83;;;5.30;53.90;;;;;;6314419;27;20119;-66
2022/01/07 03:19:52;;;;;;;9.50;3.42;;;5.30;54.00;;;;;;6326228;27;20028;-66
2022/01/07 03:22:53;;;;;;;10.18;3.40;;;5.30;54.00;;;;;;6351615;27;20084;-67
2022/01/07 03:25:54;;;;;;;5.47;3.00;;;5.20;54.00;;;;;;6360353;27;20023;-66
2022/01/07 03:28:55;;;;;;;8.32;3.83;;;5.20;54.10;;;;;;6360575;27;20031;-67
2022/01/07 03:31:56;;;;;;;8.80;3.53;;;5.20;54.20;;;;;;6340070;27;20023;-66
2022/01/07 03:34:57;;;;;;;7.88;3.80;;;5.10;54.30;;;;;;6343872;27;20123;-67
2022/01/07 03:37:58;;;;;;;9.60;3.08;;;5.10;54.40;;;;;;6341163;27;20054;-67
2022/01/07 03:40:59;;;;;;;7.95;3.53;;;5.10;54.50;;;;;;6360372;27;20123;-67
2022/01/07 03:44:00;;;;;;;8.80;3.40;;;5.10;54.70;;;;;;6344118;27;20035;-66
2022/01/07 03:47:02;;;;;;;8.45;3.05;;;5.10;54.70;;;;;;6340790;27;20031;-66
2022/01/07 03:50:06;;;;;;;7.18;2.90;;;5.00;54.70;;;;;;6363656;27;20084;-66
2022/01/07 03:53:08;;;;;;;5.93;2.85;;;5.00;54.70;;;;;;6351926;27;20034;-66
2022/01/07 03:56:11;;;;;;;10.57;3.17;;;5.00;54.80;;;;;;6340047;27;20059;-66
2022/01/07 03:59:12;;;;;;;9.10;3.50;;;4.90;54.90;;;;;;6339540;27;20495;-66
2022/01/07 04:02:13;;;;;;;9.98;3.38;;;4.90;55.10;;;;;;6320335;27;20019;-67
2022/01/07 04:05:16;;;;;;;11.27;3.13;;;4.90;55.10;;;;;;6325708;27;20023;-65
2022/01/07 04:08:17;;;;;;;5.97;2.80;;;4.90;55.10;;;;;;6324735;27;20031;-65
2022/01/07 04:11:18;;;;;;;10.80;3.03;;;4.90;55.10;;;;;;6327044;27;20111;-66
2022/01/07 04:14:19;;;;;;;9.55;4.32;;;5.00;55.00;;;;;;6321560;27;20023;-65
2022/01/07 04:17:20;;;;;;;6.82;2.97;;;4.90;54.90;;;;;;6341662;27;20035;-66
2022/01/07 04:20:27;;;;;;;4.03;2.40;;;4.90;54.90;;;;;;6340959;27;20039;-65
2022/01/07 04:23:28;;;;;;;5.43;2.70;;;4.90;54.70;;;;;;6351202;27;20026;-66
2022/01/07 04:26:29;;;;;;;6.47;2.88;;;4.90;54.80;;;;;;6344712;27;20015;-65
2022/01/07 04:29:30;;;;;;;16.70;3.72;;;4.80;54.80;;;;;;6331904;27;20034;-67
2022/01/07 04:32:31;;;;;;;9.43;3.50;;;4.80;55.00;;;;;;6341588;27;20028;-67
2022/01/07 04:35:34;;;;;;;4.95;2.35;;;4.70;55.10;;;;;;6340233;27;20035;-66
2022/01/07 04:38:35;;;;;;;9.32;2.55;;;4.70;55.20;;;;;;6340591;27;20023;-65
2022/01/07 04:41:36;;;;;;;7.03;2.78;;;4.70;55.20;;;;;;6359690;27;20024;-66
2022/01/07 04:44:40;;;;;;;16.85;3.13;;;4.70;55.30;;;;;;6338783;27;20029;-66
2022/01/07 04:47:42;;;;;;;9.85;3.80;;;4.70;55.40;;;;;;6342048;27;20023;-66
2022/01/07 04:50:43;;;;;;;7.22;3.55;;;4.70;55.50;;;;;;6360682;27;20064;-66
2022/01/07 04:53:44;;;;;;;7.78;3.58;;;4.70;55.50;;;;;;6334595;27;20083;-67
2022/01/07 04:56:45;;;;;;;8.85;3.38;;;4.70;55.60;;;;;;6343415;27;20455;-66
2022/01/07 04:59:46;;;;;;;15.27;3.55;;;4.70;55.60;;;;;;6354799;27;20019;-66
2022/01/07 05:02:47;;;;;;;7.72;2.78;;;4.80;55.50;;;;;;6322886;27;20026;-66
2022/01/07 05:05:56;;;;;;;6.20;3.08;;;4.80;55.40;;;;;;6323900;27;20027;-65
2022/01/07 05:08:57;;;;;;;6.80;2.97;;;4.80;55.40;;;;;;6342529;27;20337;-66
2022/01/07 05:11:58;;;;;;;5.65;2.50;;;4.80;55.40;;;;;;6341645;27;20084;-66
2022/01/07 05:15:00;;;;;;;8.13;3.05;;;4.80;55.30;;;;;;6337341;28;20023;-66
2022/01/07 05:18:01;;;;;;;6.53;3.38;;;4.90;55.30;;;;;;6321388;27;20467;-67
2022/01/07 05:21:02;;;;;;;6.90;2.85;;;4.90;55.10;;;;;;6346322;27;20079;-65
2022/01/07 05:24:04;;;;;;;6.25;3.47;;;4.90;55.10;;;;;;6324562;27;20122;-67
2022/01/07 05:27:05;;;;;;;8.02;2.95;;;4.90;55.10;;;;;;6323607;27;20097;-66
2022/01/07 05:30:08;;;;;;;7.38;2.83;;;4.90;55.60;;;;;;6354286;27;20113;-67
2022/01/07 05:33:09;;;;;;;8.77;3.22;;;5.00;54.90;;;;;;6367450;27;20087;-68
2022/01/07 05:36:10;;;;;;;9.13;2.95;;;5.00;54.90;;;;;;6366357;27;20047;-65
2022/01/07 05:39:11;;;;;;;5.68;2.92;;;5.10;54.80;;;;;;6361463;27;20548;-68
2022/01/07 05:42:12;;;;;;;5.22;2.92;;;5.10;54.70;;;;;;6352537;27;20061;-66
2022/01/07 05:45:13;;;;;;;4.75;2.45;;;5.10;54.60;;;;;;6364092;27;20045;-66
2022/01/07 05:48:15;;;;;;;9.85;2.97;;;5.10;54.60;;;;;;6344747;27;20012;-66
2022/01/07 05:51:16;;;;;;;5.80;2.67;;;5.00;54.60;;;;;;6362858;27;20102;-67
2022/01/07 05:54:17;;;;;;;3.78;2.45;;;5.00;54.60;;;;;;6328915;27;20106;-67
2022/01/07 05:57:18;;;;;;;6.97;3.00;;;5.00;54.60;;;;;;6343792;27;20651;-67
2022/01/07 06:00:19;;;;;;;12.55;3.80;;;5.00;54.70;;;;;;6345790;27;20028;-67
2022/01/07 06:03:20;;;;;;;6.05;2.58;;;4.90;54.60;;;;;;6329733;27;20574;-67
2022/01/07 06:06:21;;;;;;;6.90;2.58;;;4.90;54.70;;;;;;6326393;27;20288;-67
2022/01/07 06:09:22;;;;;;;6.63;2.70;;;4.90;54.70;;;;;;6326664;27;22486;-67
2022/01/07 06:12:23;;;;;;;6.35;2.88;;;4.90;54.60;;;;;;6326904;27;20192;-67
2022/01/07 06:15:24;;;;;;;6.28;3.25;;;4.90;54.70;;;;;;6343579;27;21021;-67
2022/01/07 06:18:25;;;;;;;3.13;2.22;;;4.90;54.60;;;;;;6316190;27;20039;-66
2022/01/07 06:21:27;;;;;;;4.97;2.53;;;4.90;54.70;;;;;;6312301;27;20034;-66
2022/01/07 06:24:29;;;;;;;3.03;2.10;;;4.90;54.70;;;;;;6356128;27;20433;-69
2022/01/07 06:27:30;;;;;;;9.80;3.22;;;4.90;54.80;;;;;;6363307;27;20626;-69
2022/01/07 06:30:31;;;;;;;5.43;3.05;;;4.80;54.80;;;;;;6364406;27;20132;-69
2022/01/07 06:33:33;;;;;;;10.20;3.65;;;4.80;55.00;;;;;;6343919;27;20027;-67
2022/01/07 06:36:34;;;;;;;9.18;3.60;;;4.80;55.20;;;;;;6343597;27;20039;-69
2022/01/07 06:39:35;;;;;;;8.68;3.50;;;4.80;55.20;;;;;;6363341;27;20034;-69
2022/01/07 06:42:37;;;;;;;10.40;3.45;;;4.70;55.30;;;;;;6363051;27;20050;-69
2022/01/07 06:45:38;;;;;;;8.00;3.35;;;4.70;55.50;;;;;;6340596;27;20111;-69
2022/01/07 06:48:41;;;;;;;8.18;3.90;;;4.60;55.60;;;;;;6344315;27;20657;-67
2022/01/07 06:51:42;;;;;;;6.63;2.47;;;4.60;55.60;;;;;;6343076;27;20034;-68
2022/01/07 06:54:43;;;;;;;7.97;3.38;;;4.60;55.70;;;;;;6330624;27;20539;-68
2022/01/07 06:57:45;;;;;;;5.13;2.45;;;4.60;55.70;;;;;;6325993;27;20073;-69
2022/01/07 07:00:46;;;;;;;10.55;3.25;;;4.50;55.60;;;;;;6325722;27;20023;-68
2022/01/07 07:03:47;;;;;;;7.38;3.05;;;4.50;55.60;;;;;;6343501;27;20074;-68
2022/01/07 07:06:48;;;;;;;4.75;2.65;;;4.50;55.60;;;;;;6324502;27;20407;-69
2022/01/07 07:09:49;;;;;;;9.02;3.45;;;4.60;55.60;;;;;;6345219;27;20406;-68
2022/01/07 07:12:50;;;;;;;8.07;2.85;;;4.60;55.50;;;;;;6321444;27;20041;-68
2022/01/07 07:15:51;;;;;;;10.68;2.90;;;4.60;55.30;;;;;;6312799;27;20031;-68
2022/01/07 07:18:52;;;;;;;5.65;2.63;;;4.60;55.20;;;;;;6327380;27;20027;-68
2022/01/07 07:21:53;;;;;;;3.83;2.53;;;4.60;55.20;;;;;;6322682;27;20124;-68
2022/01/07 07:24:55;;;;;;;7.78;3.83;;;4.70;55.10;;;;;;6325935;27;20110;-68
2022/01/07 07:27:56;;;;;;;7.93;2.35;;;4.70;54.80;;;;;;6305803;27;20020;-68
2022/01/07 07:31:00;;;;;;;6.10;2.75;;;4.70;54.50;;;;;;6302550;27;20043;-69
2022/01/07 07:37:17;;;;;;;6.70;2.25;;;4.70;54.60;;;;;;6320028;27;20057;-68
2022/01/07 07:40:18;;;;;;;4.32;2.40;;;4.70;54.60;;;;;;6316841;27;20031;-70
2022/01/07 07:43:19;;;;;;;8.20;3.65;;;4.70;54.60;;;;;;6311183;27;20023;-68
2022/01/07 07:46:20;;;;;;;9.00;3.20;;;4.70;54.80;;;;;;6325422;27;20027;-70
2022/01/07 07:49:21;;;;;;;9.52;3.50;;;4.70;55.00;;;;;;6319410;27;20030;-70
2022/01/07 07:52:22;;;;;;;44.25;16.85;;;4.70;55.10;;;;;;6340831;27;20024;-68
2022/01/07 07:55:23;;;;;;;6.07;2.72;;;4.70;55.10;;;;;;6326483;27;20023;-68
2022/01/07 07:58:27;;;;;;;13.30;3.08;;;4.70;55.20;;;;;;6338186;27;20135;-68
2022/01/07 08:01:28;;;;;;;6.97;3.05;;;4.80;55.10;;;;;;6359911;27;20115;-69
2022/01/07 08:04:30;;;;;;;7.15;3.50;;;4.70;55.00;;;;;;6359544;27;20018;-68
2022/01/07 08:07:31;;;;;;;11.10;4.03;;;4.70;55.20;;;;;;6340687;27;20046;-68
2022/01/07 08:10:33;;;;;;;9.48;3.03;;;4.70;55.20;;;;;;6360145;27;20037;-68
2022/01/07 08:16:53;;;;;;;16.95;3.22;;;4.60;55.30;;;;;;6340804;27;20028;-68
2022/01/07 08:19:54;;;;;;;6.00;3.55;;;4.60;55.40;;;;;;6343235;27;20471;-68
2022/01/07 08:22:56;;;;;;;12.05;3.22;;;4.70;55.50;;;;;;6343279;27;20030;-68
2022/01/07 08:25:57;;;;;;;7.80;2.92;;;4.70;55.40;;;;;;6341496;27;20489;-68
2022/01/07 08:29:04;;;;;;;15.75;3.65;;;4.80;55.40;;;;;;6324590;27;20023;-68
2022/01/07 08:35:29;;;;;;;6.18;2.85;;;4.90;55.60;;;;;;6329491;27;20030;-68
2022/01/07 08:38:30;;;;;;;11.52;3.92;;;4.90;54.80;;;;;;6330953;27;20027;-69
2022/01/07 08:41:31;;;;;;;14.85;4.28;;;4.90;54.60;;;;;;6341353;27;20015;-69
2022/01/07 08:44:32;;;;;;;7.22;3.00;;;5.00;54.50;;;;;;6341621;27;20623;-69
2022/01/07 08:47:33;;;;;;;4.70;2.95;;;4.90;54.40;;;;;;6359699;27;20016;-70
2022/01/07 08:50:34;;;;;;;6.55;3.45;;;5.00;54.60;;;;;;6331554;27;20019;-70
2022/01/07 08:53:36;;;;;;;4.30;2.75;;;5.00;54.60;;;;;;6336534;27;20028;-68
2022/01/07 08:56:37;;;;;;;8.55;3.65;;;5.10;54.60;;;;;;6353073;27;20032;-69
2022/01/07 08:59:38;;;;;;;12.35;4.05;;;5.10;54.50;;;;;;6339098;27;20038;-69
2022/01/07 09:02:39;;;;;;;7.93;3.80;;;5.20;54.40;;;;;;6335175;27;20106;-69
2022/01/07 09:05:40;;;;;;;13.00;3.65;;;5.30;54.10;;;;;;6323836;27;20621;-70
2022/01/07 09:08:41;;;;;;;10.20;3.75;;;5.40;54.00;;;;;;6314772;27;20027;-70
2022/01/07 09:11:42;;;;;;;8.68;4.28;;;5.50;54.00;;;;;;6323578;27;20110;-69
2022/01/07 09:14:44;;;;;;;5.88;2.88;;;5.60;53.80;;;;;;6313214;28;20029;-69
2022/01/07 09:17:45;;;;;;;9.60;3.33;;;5.70;53.60;;;;;;6342887;28;20031;-69
2022/01/07 09:20:46;;;;;;;9.80;3.40;;;5.70;53.40;;;;;;6312982;28;20119;-68
2022/01/07 09:23:48;;;;;;;6.40;3.60;;;5.80;53.30;;;;;;6315638;28;20047;-68
2022/01/07 09:26:49;;;;;;;7.90;3.70;;;5.90;53.20;;;;;;6317817;28;20027;-69
2022/01/07 09:29:50;;;;;;;9.13;4.47;;;6.00;53.00;;;;;;6326550;28;20050;-69
2022/01/07 09:32:51;;;;;;;11.00;5.07;;;6.00;52.90;;;;;;6321757;28;20079;-70
2022/01/07 09:35:53;;;;;;;8.18;3.80;;;6.00;52.90;;;;;;6324522;28;20058;-69
2022/01/07 09:38:54;;;;;;;12.27;4.50;;;6.10;53.00;;;;;;6339321;28;20027;-69
2022/01/07 09:42:00;;;;;;;10.55;4.63;;;6.10;52.80;;;;;;6340620;28;20042;-69
2022/01/07 09:45:01;;;;;;;8.73;3.97;;;6.10;52.90;;;;;;6321915;28;20031;-71
2022/01/07 09:48:03;;;;;;;11.57;4.70;;;6.20;53.00;;;;;;6322574;28;20020;-69
2022/01/07 09:51:04;;;;;;;8.95;4.15;;;6.30;52.90;;;;;;6324737;28;20243;-70
2022/01/07 09:54:07;;;;;;;17.27;3.90;;;6.30;52.80;;;;;;6333379;28;20416;-68
2022/01/07 09:57:12;;;;;;;6.05;3.03;;;6.40;52.70;;;;;;6332040;28;20057;-69
2022/01/07 10:00:13;;;;;;;12.60;4.05;;;6.40;52.50;;;;;;6327163;28;20023;-67
2022/01/07 10:03:17;;;;;;;8.25;3.97;;;6.50;52.30;;;;;;6346017;28;20035;-68
2022/01/07 10:06:23;;;;;;;9.45;3.92;;;6.50;52.30;;;;;;6364644;27;20674;-69
2022/01/07 10:09:24;;;;;;;10.00;3.65;;;6.70;52.10;;;;;;6328147;27;20055;-69
2022/01/07 10:12:29;;;;;;;7.97;3.28;;;6.90;51.80;;;;;;6335686;27;20111;-69
2022/01/07 10:15:36;;;;;;;8.60;2.97;;;7.10;51.60;;;;;;6343440;27;20419;-69
2022/01/07 10:18:39;;;;;;;12.38;3.70;;;7.30;51.10;;;;;;6356537;27;20042;-67
2022/01/07 10:21:42;;;;;;;14.63;4.78;;;7.40;50.60;;;;;;6350584;27;20020;-69
2022/01/07 10:24:59;;;;;;;52.28;14.68;;;7.60;50.50;;;;;;6346083;27;20019;-70
2022/01/07 10:28:06;;;;;;;11.23;4.35;;;7.90;50.00;;;;;;6364908;27;20523;-69
2022/01/07 10:31:09;;;;;;;18.57;5.73;;;8.00;49.50;;;;;;6347061;27;20312;-69
2022/01/07 10:34:10;;;;;;;14.50;6.55;;;8.10;49.10;;;;;;6348808;27;20027;-68
2022/01/07 10:37:14;;;;;;;15.27;5.10;;;8.20;49.00;;;;;;6335404;27;20156;-71
2022/01/07 10:40:35;;;;;;;10.88;4.55;;;8.20;48.70;;;;;;6351957;27;20069;-69
2022/01/07 10:43:36;;;;;;;17.05;5.55;;;8.40;48.60;;;;;;6330878;27;20088;-69
2022/01/07 10:46:38;;;;;;;11.73;5.13;;;8.50;48.50;;;;;;6325545;27;20623;-69
2022/01/07 10:49:39;;;;;;;11.82;4.80;;;8.60;48.20;;;;;;6322844;27;20102;-67
2022/01/07 10:52:41;;;;;;;8.55;3.83;;;8.80;47.90;;;;;;6309968;27;20035;-69
2022/01/07 10:56:08;;;;;;;12.27;4.18;;;8.90;47.80;;;;;;6309916;27;20031;-69
2022/01/07 10:59:14;;;;;;;8.48;4.70;;;9.00;47.40;;;;;;6308193;27;20031;-69
2022/01/07 11:02:15;;;;;;;13.02;5.03;;;8.90;47.40;;;;;;6319077;27;20023;-69
2022/01/07 11:05:16;;;;;;;9.82;3.90;;;8.90;47.30;;;;;;6315968;27;20031;-69
2022/01/07 11:08:18;;;;;;;13.00;2.55;;;8.90;46.90;;;;;;6296923;27;20031;-69
2022/01/07 11:11:21;;;;;;;7.90;2.80;;;8.90;46.60;;;;;;6315331;27;20046;-69
2022/01/07 11:14:28;;;;;;;7.90;3.10;;;8.90;46.40;;;;;;6297277;27;20058;-69
2022/01/07 11:17:30;;;;;;;10.05;3.33;;;8.80;46.50;;;;;;6334377;27;20115;-69
2022/01/07 11:20:31;;;;;;;10.05;3.65;;;8.80;46.60;;;;;;6340150;27;20032;-68
2022/01/07 11:23:33;;;;;;;6.65;3.13;;;8.80;46.60;;;;;;6325084;27;20027;-70
2022/01/07 11:26:58;;;;;;;13.52;4.68;;;8.90;46.30;;;;;;6324047;27;20042;-69
2022/01/07 11:30:01;;;;;;;9.70;3.50;;;9.50;45.60;;;;;;6326444;27;20050;-68
2022/01/07 11:33:17;;;;;;;11.02;3.83;;;10.30;44.10;;;;;;6344880;27;20024;-69
2022/01/07 11:36:34;;;;;;;17.85;6.00;;;11.10;42.50;;;;;;6356092;27;20043;-69
2022/01/07 11:39:40;;;;;;;11.38;4.72;;;11.80;40.70;;;;;;6341526;27;20521;-69
2022/01/07 11:42:47;;;;;;;13.63;4.85;;;12.30;39.40;;;;;;6339885;27;20396;-70
2022/01/07 11:45:48;;;;;;;15.35;5.95;;;12.80;38.90;;;;;;6359197;27;20476;-69
2022/01/07 11:48:52;;;;;;;12.77;4.05;;;13.10;38.60;;;;;;6326362;27;20031;-69
2022/01/07 11:51:53;;;;;;;9.45;4.00;;;13.50;38.30;;;;;;6343761;27;20367;-70
2022/01/07 11:55:28;;;;;;;14.60;6.18;;;13.60;37.70;;;;;;6325716;27;20035;-69
2022/01/07 11:58:55;;;;;;;16.75;6.93;;;13.30;38.00;;;;;;6329063;27;20023;-70
2022/01/07 12:02:02;;;;;;;14.93;7.03;;;12.80;38.50;;;;;;6322363;27;20027;-69
2022/01/07 12:05:32;;;;;;;16.38;8.30;;;12.30;39.20;;;;;;6320337;27;20099;-69
2022/01/07 12:08:40;;;;;;;8.55;3.60;;;12.00;39.30;;;;;;6327547;27;20023;-68
2022/01/07 12:11:43;;;;;;;;;;;11.50;39.80;;;;;;6343852;27;20083;-69
2022/01/07 12:14:48;;;;;;;7.95;3.42;;;11.30;40.30;;;;;;6340374;27;20339;-69
2022/01/07 12:17:49;;;;;;;10.80;4.10;;;11.00;40.70;;;;;;6319410;27;20015;-69
2022/01/07 12:20:50;;;;;;;6.90;3.10;;;10.90;41.60;;;;;;6322411;27;20563;-71
2022/01/07 12:24:04;;;;;;;12.55;4.75;;;10.70;41.00;;;;;;6324348;27;21161;-70
2022/01/07 12:27:24;;;;;;;8.43;3.65;;;10.60;40.60;;;;;;6318140;27;20146;-69
2022/01/07 12:30:25;;;;;;;9.00;2.92;;;10.50;40.40;;;;;;6323357;27;20134;-71
2022/01/07 12:33:26;;;;;;;11.18;3.60;;;10.30;40.70;;;;;;6333898;27;20027;-70
2022/01/07 12:36:36;;;;;;;5.43;2.55;;;10.30;41.10;;;;;;6301927;27;20420;-71
2022/01/07 12:40:01;;;;;;;10.93;4.18;;;10.30;41.00;;;;;;6306957;27;20058;-69
2022/01/07 12:43:02;;;;;;;17.00;5.07;;;10.40;41.10;;;;;;6310069;27;20035;-69
2022/01/07 12:46:06;;;;;;;26.02;9.48;;;10.40;41.00;;;;;;6296220;27;20535;-69
2022/01/07 12:49:09;;;;;;;22.55;9.45;;;10.40;41.00;;;;;;6301874;27;20036;-70
2022/01/07 12:52:16;;;;;;;18.80;5.95;;;10.30;40.80;;;;;;6288881;27;20023;-69
2022/01/07 12:55:23;;;;;;;11.30;4.00;;;10.20;41.10;;;;;;6296706;27;20122;-70
2022/01/07 12:58:28;;;;;;;9.90;3.53;;;10.10;41.20;;;;;;6327200;27;21354;-69
2022/01/07 13:01:31;;;;;;;12.38;3.80;;;10.10;41.20;;;;;;6308466;27;20027;-70
2022/01/07 13:04:37;;;;;;;11.02;3.63;;;10.00;41.40;;;;;;6317581;27;20479;-68
2022/01/07 13:07:43;;;;;;;10.15;4.05;;;9.90;41.50;;;;;;6325141;28;20114;-69
2022/01/07 13:10:47;;;;;;;8.25;3.38;;;9.80;41.50;;;;;;6310629;27;20034;-69
2022/01/07 13:14:09;;;;;;;5.82;2.88;;;9.80;41.70;;;;;;6311703;28;21344;-69
2022/01/07 13:17:12;;;;;;;8.43;3.53;;;9.80;41.80;;;;;;6335665;28;20039;-70
2022/01/07 13:20:28;;;;;;;7.72;2.33;;;9.80;41.80;;;;;;6305070;28;20064;-70
2022/01/07 13:23:29;;;;;;;8.70;2.78;;;9.70;41.80;;;;;;6305406;28;20039;-70
2022/01/07 13:26:32;;;;;;;6.20;2.85;;;9.70;41.90;;;;;;6299754;28;20038;-69
2022/01/07 13:29:33;;;;;;;15.05;2.83;;;9.70;42.50;;;;;;6326077;28;20032;-70
2022/01/07 13:32:34;;;;;;;9.07;3.47;;;9.60;42.00;;;;;;6306265;28;20034;-70
2022/01/07 13:35:37;;;;;;;5.85;2.80;;;9.60;42.20;;;;;;6303901;28;20096;-69
2022/01/07 13:38:38;;;;;;;10.98;2.90;;;9.60;42.20;;;;;;6300854;27;20031;-69
2022/01/07 13:42:00;;;;;;;5.60;2.97;;;9.60;42.00;;;;;;6319587;27;20061;-69
2022/01/07 13:45:04;;;;;;;8.55;2.35;;;9.50;42.00;;;;;;6320836;27;20023;-69
2022/01/07 13:48:07;;;;;;;6.55;2.35;;;9.50;42.10;;;;;;6318233;27;20105;-69
2022/01/07 13:51:10;;;;;;;7.85;2.80;;;9.30;42.10;;;;;;6318544;27;20019;-69
2022/01/07 13:54:15;;;;;;;9.77;3.03;;;9.30;42.30;;;;;;6339574;27;20026;-70
2022/01/07 13:57:17;;;;;;;6.20;2.40;;;9.30;42.40;;;;;;6322442;27;20045;-69
2022/01/07 14:00:18;;;;;;;7.82;2.85;;;9.40;42.30;;;;;;6324514;27;20110;-69
2022/01/07 14:03:19;;;;;;;5.28;2.60;;;9.40;42.20;;;;;;6343013;27;20685;-69
2022/01/07 14:06:24;;;;;;;4.60;2.60;;;9.40;42.20;;;;;;6322799;27;20019;-69
2022/01/07 14:09:25;;;;;;;6.68;2.92;;;9.30;42.20;;;;;;6330552;27;20019;-69
2022/01/07 14:12:26;;;;;;;7.90;2.78;;;9.20;41.90;;;;;;6347490;27;20030;-69
2022/01/07 14:15:43;;;;;;;8.65;2.92;;;9.20;42.20;;;;;;6340778;27;20108;-69
2022/01/07 14:18:58;;;;;;;5.55;2.28;;;9.20;42.60;;;;;;6349268;27;20051;-68
2022/01/07 14:21:59;;;;;;;7.80;2.70;;;9.10;42.70;;;;;;6362610;27;20026;-69
2022/01/07 14:25:00;;;;;;;5.25;2.35;;;9.10;42.90;;;;;;6361458;27;20027;-69
2022/01/07 14:28:01;;;;;;;3.70;1.98;;;9.20;43.40;;;;;;6345826;27;20019;-68
2022/01/07 14:31:03;;;;;;;8.77;2.35;;;9.20;43.50;;;;;;6329922;27;20047;-70
2022/01/07 14:34:04;;;;;;;7.32;2.30;;;9.20;43.70;;;;;;6332670;27;20037;-69
2022/01/07 14:37:06;;;;;;;3.95;2.00;;;9.20;43.80;;;;;;6345057;27;20039;-69
2022/01/07 14:40:09;;;;;;;3.95;2.17;;;9.10;44.00;;;;;;6362809;27;20039;-69
2022/01/07 14:43:12;;;;;;;12.05;2.58;;;9.10;44.10;;;;;;6338798;27;20291;-71
2022/01/07 14:46:13;;;;;;;5.15;2.15;;;9.00;45.10;;;;;;6328261;27;20027;-70
2022/01/07 14:49:14;;;;;;;7.82;2.42;;;9.00;45.00;;;;;;6340783;27;20065;-70
2022/01/07 14:52:16;;;;;;;7.53;2.30;;;8.90;45.80;;;;;;6327141;27;20110;-69
2022/01/07 14:55:23;;;;;;;6.97;1.67;;;8.70;46.40;;;;;;6343019;27;20027;-71
2022/01/07 14:58:24;;;;;;;11.40;3.40;;;8.60;47.70;;;;;;6331755;27;20125;-68
2022/01/07 15:01:25;;;;;;;11.20;2.25;;;8.30;49.10;;;;;;6344618;27;20020;-69
2022/01/07 15:04:26;;;;;;;14.23;2.65;;;8.10;50.10;;;;;;6342570;27;20465;-70
2022/01/07 15:07:27;;;;;;;5.65;1.85;;;7.90;51.40;;;;;;6345024;27;20110;-70
2022/01/07 15:10:29;;;;;;;8.50;2.60;;;7.70;52.20;;;;;;6340161;27;20059;-71
2022/01/07 15:13:30;;;;;;;4.75;2.50;;;7.60;52.60;;;;;;6345655;27;20768;-70
2022/01/07 15:16:47;;;;;;;5.60;2.20;;;7.50;53.00;;;;;;6327571;27;20039;-70
2022/01/07 15:19:48;;;;;;;7.05;2.63;;;7.40;53.30;;;;;;6324465;27;20363;-70
2022/01/07 15:22:49;;;;;;;5.00;2.33;;;7.40;53.80;;;;;;6313685;27;20360;-70
2022/01/07 15:25:51;;;;;;;9.20;3.85;;;7.30;54.10;;;;;;6322253;27;20081;-70
2022/01/07 15:28:52;;;;;;;9.90;2.38;;;7.20;54.30;;;;;;6328568;27;20063;-69
2022/01/07 15:31:53;;;;;;;4.95;2.17;;;7.20;54.80;;;;;;6319150;27;20518;-70
2022/01/07 15:34:54;;;;;;;10.73;2.65;;;7.20;55.50;;;;;;6313167;27;20030;-69
2022/01/07 15:37:55;;;;;;;9.73;2.83;;;7.10;55.90;;;;;;6297623;28;20169;-68
2022/01/07 15:40:56;;;;;;;10.05;5.50;;;7.10;56.30;;;;;;6315143;28;20035;-71
2022/01/07 15:43:58;;;;;;;7.28;3.72;;;7.10;56.80;;;;;;6313342;28;21649;-69
2022/01/07 15:46:59;;;;;;;7.43;3.20;;;7.00;56.90;;;;;;6314578;28;20027;-68
2022/01/07 15:50:01;;;;;;;9.57;3.00;;;6.90;57.20;;;;;;6330277;28;20406;-69
2022/01/07 15:53:02;;;;;;;3.78;2.33;;;6.90;57.50;;;;;;6333327;28;20131;-69
2022/01/07 15:56:05;;;;;;;6.05;2.60;;;6.80;57.60;;;;;;6317997;28;20725;-69
2022/01/07 15:59:06;;;;;;;11.10;2.20;;;6.80;57.80;;;;;;6315544;28;20114;-69
2022/01/07 16:02:07;;;;;;;5.15;2.13;;;6.80;57.80;;;;;;6314796;28;20314;-68
2022/01/07 16:05:08;;;;;;;5.50;2.75;;;6.80;57.80;;;;;;6315011;28;20159;-69
2022/01/07 16:08:09;;;;;;;9.52;2.60;;;6.80;57.90;;;;;;6292290;28;20089;-70